createdAt,value
2018-01-03T17:22:19.893Z,5.6
2018-01-03T17:23:20.267Z,5.56
2018-01-03T17:24:29.007Z,5.54
2018-01-03T17:25:31.611Z,5.58
2018-01-03T17:26:29.081Z,5.57
2018-01-03T17:27:30.835Z,5.58
2018-01-03T17:28:29.234Z,5.67
2018-01-03T17:29:29.102Z,5.66
2018-01-03T17:30:30.736Z,5.69
2018-01-03T17:31:29.068Z,5.68
2018-01-03T17:32:30.455Z,5.64
2018-01-03T17:33:31.365Z,5.66
2018-01-03T17:34:31.362Z,5.65
2018-01-03T17:35:48.473Z,5.69
2018-01-03T17:36:48.921Z,5.72
2018-01-03T17:37:48.351Z,5.69
2018-01-03T17:38:52.507Z,5.73
2018-01-03T17:39:48.922Z,5.76
2018-01-03T17:40:48.262Z,5.71
2018-01-03T17:41:48.633Z,5.72
2018-01-03T17:42:48.903Z,5.75
2018-01-03T17:43:49.044Z,5.73
2018-01-03T17:44:48.529Z,5.73
2018-01-03T17:45:48.971Z,5.75
2018-01-03T17:46:48.718Z,5.74
2018-01-03T17:47:49.126Z,5.78
2018-01-03T17:48:48.404Z,5.78
2018-01-03T17:49:48.757Z,5.78
2018-01-03T17:50:49.049Z,5.78
2018-01-03T17:51:48.264Z,5.77
2018-01-03T17:52:48.475Z,5.82
2018-01-03T17:53:48.763Z,5.8
2018-01-03T17:54:49.096Z,5.8
2018-01-03T17:55:48.484Z,5.8
2018-01-03T17:56:48.897Z,5.8
2018-01-03T17:57:48.414Z,5.81
2018-01-03T17:58:48.759Z,5.78
2018-01-03T17:59:49.168Z,5.8
2018-01-03T18:00:48.397Z,5.78
2018-01-03T18:01:48.672Z,5.76
2018-01-03T18:02:49.031Z,5.77
2018-01-03T18:03:48.371Z,5.75
2018-01-03T18:04:48.955Z,5.79
2018-01-03T18:05:48.359Z,5.77
2018-01-03T18:06:48.520Z,5.8
2018-01-03T18:07:48.728Z,5.8
2018-01-03T18:08:49.132Z,5.82
2018-01-03T18:09:48.498Z,5.79
2018-01-03T18:10:48.573Z,5.8
2018-01-03T18:11:48.803Z,5.78
2018-01-03T18:12:49.028Z,5.77
2018-01-03T18:13:49.323Z,5.79
2018-01-03T18:14:48.851Z,5.8
2018-01-03T18:15:49.060Z,5.82
2018-01-03T18:16:48.517Z,5.79
2018-01-03T18:17:48.772Z,5.78
2018-01-03T18:18:48.983Z,5.8
2018-01-03T18:19:48.562Z,5.76
2018-01-03T18:20:48.974Z,5.75
2018-01-03T18:21:49.273Z,5.74
2018-01-03T18:22:48.501Z,5.75
2018-01-03T18:23:48.815Z,5.75
2018-01-03T18:24:49.037Z,5.72
2018-01-03T18:25:49.410Z,5.74
2018-01-03T18:26:48.846Z,5.68
2018-01-03T18:27:49.332Z,5.69
2018-01-03T18:28:48.828Z,5.73
2018-01-03T18:29:49.346Z,5.72
2018-01-03T18:30:48.987Z,5.69
2018-01-03T18:31:49.388Z,5.74
2018-01-03T18:32:48.967Z,5.71
2018-01-03T18:33:49.386Z,5.68
2018-01-03T18:34:48.692Z,5.73
2018-01-03T18:35:48.962Z,5.73
2018-01-03T18:36:48.274Z,5.67
2018-01-03T18:37:48.698Z,5.65
2018-01-03T18:38:48.057Z,5.67
2018-01-03T18:39:48.404Z,5.66
2018-01-03T18:40:48.151Z,5.68
2018-01-03T18:41:48.627Z,5.64
2018-01-03T18:42:48.962Z,5.64
2018-01-03T18:43:48.467Z,5.65
2018-01-03T18:44:48.944Z,5.66
2018-01-03T18:45:48.352Z,5.66
2018-01-03T18:46:49.001Z,5.65
2018-01-03T18:47:48.632Z,5.65
2018-01-03T18:48:48.163Z,5.61
2018-01-03T18:49:48.538Z,5.61
2018-01-03T18:50:48.855Z,5.64
2018-01-03T18:51:48.565Z,5.61
2018-01-03T18:52:34.247Z,5.63
2018-01-03T18:53:34.505Z,5.63
2018-01-03T18:54:34.388Z,5.63
2018-01-03T18:55:34.884Z,5.61
2018-01-03T18:56:34.502Z,5.65
2018-01-03T18:57:35.327Z,5.61
2018-01-03T18:58:34.848Z,5.61
2018-01-03T18:59:34.387Z,5.6
2018-01-03T19:00:35.099Z,5.59
2018-01-03T19:01:34.615Z,5.58
2018-01-03T19:02:34.969Z,5.6
2018-01-03T19:03:35.234Z,5.62
2018-01-03T19:04:34.735Z,5.61
2018-01-03T19:05:34.537Z,5.61
2018-01-03T19:06:35.651Z,5.56
2018-01-03T19:07:35.046Z,5.59
2018-01-03T19:08:34.446Z,5.55
2018-01-03T19:09:34.955Z,5.54
2018-01-03T19:10:34.920Z,5.56
2018-01-03T19:11:34.563Z,5.58
2018-01-03T19:12:34.273Z,5.59
2018-01-03T19:13:35.241Z,5.6
2018-01-03T19:14:34.922Z,5.55
2018-01-03T19:15:34.949Z,5.57
2018-01-03T19:16:35.011Z,5.59
2018-01-03T19:17:34.373Z,5.6
2018-01-03T19:18:34.852Z,5.61
2018-01-03T19:19:34.405Z,5.6
2018-01-03T19:20:34.870Z,5.65
2018-01-03T19:21:34.758Z,5.7
2018-01-03T19:22:34.354Z,5.73
2018-01-03T19:23:34.697Z,5.79
2018-01-03T19:24:36.138Z,5.87
2018-01-03T19:25:34.784Z,5.89
2018-01-03T19:26:34.121Z,5.9
2018-01-03T19:27:34.505Z,5.87
2018-01-03T19:28:36.316Z,5.94
2018-01-03T19:29:35.032Z,5.9
2018-01-03T19:30:35.182Z,5.97
2018-01-03T19:31:34.395Z,5.93
2018-01-03T19:32:35.392Z,5.91
2018-01-03T19:33:35.154Z,5.93
2018-01-03T19:34:35.554Z,5.9
2018-01-03T19:35:35.450Z,5.89
2018-01-03T19:36:34.282Z,5.94
2018-01-03T19:37:34.593Z,5.91
2018-01-03T19:38:34.748Z,5.94
2018-01-03T19:39:35.488Z,5.95
2018-01-03T19:40:34.153Z,5.9
2018-01-03T19:41:35.454Z,5.94
2018-01-03T19:42:35.312Z,5.89
2018-01-03T19:43:34.417Z,5.88
2018-01-03T19:44:34.797Z,5.86
2018-01-03T19:45:35.852Z,5.83
2018-01-03T19:46:34.875Z,5.88
2018-01-03T19:47:34.810Z,5.9
2018-01-03T19:48:34.647Z,5.85
2018-01-03T19:49:35.282Z,5.81
2018-01-03T19:50:35.239Z,5.84
2018-01-03T19:51:35.499Z,5.83
2018-01-03T19:52:35.267Z,5.82
2018-01-03T19:53:34.972Z,5.85
2018-01-03T19:54:34.562Z,5.84
2018-01-03T19:55:34.516Z,5.83
2018-01-03T19:56:34.848Z,5.79
2018-01-03T19:57:34.532Z,5.78
2018-01-03T19:58:34.343Z,5.78
2018-01-03T19:59:34.936Z,5.76
2018-01-03T20:00:34.260Z,5.75
2018-01-03T20:01:34.729Z,5.73
2018-01-03T20:02:34.414Z,5.75
2018-01-03T20:03:34.959Z,5.71
2018-01-03T20:04:34.727Z,5.66
2018-01-03T20:05:34.352Z,5.72
2018-01-03T20:06:34.919Z,5.72
2018-01-03T20:07:34.352Z,5.72
2018-01-03T20:08:35.123Z,5.68
2018-01-03T20:09:35.792Z,5.71
2018-01-03T20:10:34.799Z,5.69
2018-01-03T20:11:34.468Z,5.69
2018-01-03T20:12:34.699Z,5.7
2018-01-03T20:13:34.784Z,5.7
2018-01-03T20:14:34.297Z,5.72
2018-01-03T20:14:53.867Z,5.68
2018-01-03T20:15:53.544Z,5.73
2018-01-03T20:16:54.202Z,5.74
2018-01-03T20:17:54.262Z,5.71
2018-01-03T20:18:55.269Z,5.71
2018-01-03T20:19:56.652Z,5.69
2018-01-03T20:20:55.104Z,5.71
2018-01-03T20:21:54.784Z,5.76
2018-01-03T20:22:55.809Z,5.72
2018-01-03T20:23:53.812Z,5.72
2018-01-03T20:24:54.338Z,5.69
2018-01-03T20:25:54.345Z,5.73
2018-01-03T20:26:53.829Z,5.73
2018-01-03T20:27:55.691Z,5.77
2018-01-03T20:28:54.264Z,5.76
2018-01-03T20:29:54.202Z,5.75
2018-01-03T20:30:53.762Z,5.76
2018-01-03T20:31:29.415Z,5.76
2018-01-03T20:32:30.124Z,5.74
2018-01-03T20:33:29.814Z,5.73
2018-01-03T20:34:29.629Z,5.68
2018-01-03T20:35:29.095Z,5.69
2018-01-03T20:36:29.662Z,5.71
2018-01-03T20:37:29.263Z,5.71
2018-01-03T20:38:29.634Z,5.74
2018-01-03T20:39:29.786Z,5.73
2018-01-03T20:40:30.206Z,5.72
2018-01-03T20:41:29.376Z,5.72
2018-01-03T20:42:31.036Z,5.72
2018-01-03T20:43:29.923Z,5.72
2018-01-03T20:44:29.974Z,5.75
2018-01-03T20:45:30.425Z,5.72
2018-01-03T20:46:29.739Z,5.73
2018-01-03T20:47:30.923Z,5.76
2018-01-03T20:48:29.505Z,5.71
2018-01-03T20:49:29.229Z,5.74
2018-01-03T20:50:29.475Z,5.77
2018-01-03T20:51:30.054Z,5.75
2018-01-03T20:52:29.828Z,5.72
2018-01-03T20:53:29.671Z,5.75
2018-01-03T20:54:29.255Z,5.74
2018-01-03T20:55:30.081Z,5.72
2018-01-03T20:56:30.049Z,5.73
2018-01-03T20:57:29.821Z,5.68
2018-01-03T20:58:29.273Z,5.68
2018-01-03T20:59:30.019Z,5.68
2018-01-03T21:00:29.433Z,5.72
2018-01-03T21:01:30.404Z,5.7
2018-01-03T21:02:29.418Z,5.74
2018-01-03T21:03:29.933Z,5.69
2018-01-03T21:04:29.423Z,5.67
2018-01-03T21:05:29.831Z,5.69
2018-01-03T21:06:29.306Z,5.69
2018-01-03T21:07:30.594Z,5.67
2018-01-03T21:08:05.174Z,5.7
2018-01-03T21:08:27.800Z,5.69
2018-01-03T21:09:27.485Z,5.72
2018-01-03T21:10:27.454Z,5.6
2018-01-03T21:11:29.540Z,5.61
2018-01-03T21:12:28.945Z,5.66
2018-01-03T21:13:27.350Z,5.66
2018-01-03T21:14:28.982Z,5.64
2018-01-03T21:15:29.708Z,5.63
2018-01-03T21:16:27.382Z,5.63
2018-01-03T21:17:27.593Z,5.65
2018-01-03T21:18:27.971Z,5.69
2018-01-03T21:19:27.568Z,5.63
2018-01-03T21:20:29.215Z,5.65
2018-01-03T21:21:29.896Z,5.62
2018-01-03T21:22:27.895Z,5.63
2018-01-03T21:23:28.425Z,5.63
2018-01-03T21:24:27.721Z,5.62
2018-01-03T21:25:28.357Z,5.6
2018-01-03T21:26:28.208Z,5.58
2018-01-03T21:27:28.284Z,5.63
2018-01-03T21:28:28.089Z,5.63
2018-01-03T21:29:27.356Z,5.6
2018-01-03T21:30:28.565Z,5.66
2018-01-03T21:31:27.351Z,5.63
2018-01-03T21:32:27.814Z,5.66
2018-01-03T21:33:27.318Z,5.68
2018-01-03T21:34:27.459Z,5.67
2018-01-03T21:35:27.797Z,5.7
2018-01-03T21:36:27.807Z,5.71
2018-01-03T21:37:28.014Z,5.69
2018-01-03T21:38:27.489Z,5.71
2018-01-03T21:39:28.210Z,5.73
2018-01-03T21:40:35.312Z,5.77
2018-01-03T21:41:30.555Z,5.75
2018-01-03T21:42:28.150Z,5.79
2018-01-03T21:43:28.407Z,5.8
2018-01-03T21:44:29.411Z,5.8
2018-01-03T21:45:28.974Z,5.82
2018-01-03T21:46:28.121Z,5.79
2018-01-03T21:47:29.801Z,5.84
2018-01-03T21:48:27.591Z,5.83
2018-01-03T21:49:27.993Z,5.87
2018-01-03T21:50:28.387Z,5.85
2018-01-03T21:51:27.877Z,5.89
2018-01-03T21:52:28.017Z,5.87
2018-01-03T21:53:28.126Z,5.88
2018-01-03T21:54:27.445Z,5.85
2018-01-03T21:55:28.546Z,5.86
2018-01-03T21:56:28.993Z,5.91
2018-01-03T21:57:27.438Z,5.86
2018-01-03T21:59:28.313Z,5.87
2018-01-03T22:00:27.872Z,5.86
2018-01-03T22:01:27.706Z,5.86
2018-01-03T22:02:31.159Z,5.87
2018-01-03T22:03:31.241Z,5.83
2018-01-03T22:04:27.627Z,5.87
2018-01-03T22:05:28.201Z,5.87
2018-01-03T22:06:27.655Z,5.84
2018-01-03T22:07:28.842Z,5.85
2018-01-03T22:08:29.064Z,5.84
2018-01-03T22:09:27.623Z,5.85
2018-01-03T22:10:29.312Z,5.85
2018-01-03T22:11:28.775Z,5.82
2018-01-03T22:12:27.975Z,5.85
2018-01-03T22:13:31.119Z,5.85
2018-01-03T22:14:27.630Z,5.85
2018-01-03T22:15:27.816Z,5.83
2018-01-03T22:16:28.315Z,5.86
2018-01-03T22:17:28.262Z,5.83
2018-01-03T22:18:28.625Z,5.87
2018-01-03T22:19:28.723Z,5.88
2018-01-03T22:20:28.245Z,5.89
2018-01-03T22:21:27.624Z,5.88
2018-01-03T22:22:28.353Z,5.92
2018-01-03T22:23:27.926Z,5.93
2018-01-03T22:24:28.381Z,5.93
2018-01-03T22:25:27.880Z,5.96
2018-01-03T22:26:28.566Z,6.06
2018-01-03T22:27:28.269Z,6.09
2018-01-03T22:28:28.069Z,6.12
2018-01-03T22:29:28.473Z,6.13
2018-01-03T22:30:29.288Z,6.06
2018-01-03T22:31:28.097Z,6.08
2018-01-03T22:32:28.638Z,6.04
2018-01-03T22:33:28.395Z,6.05
2018-01-03T22:34:27.768Z,6.05
2018-01-03T22:35:29.729Z,6.03
2018-01-03T22:36:28.128Z,6.04
2018-01-03T22:37:27.788Z,6.05
2018-01-03T22:38:28.188Z,6.02
2018-01-03T22:39:27.999Z,6.03
2018-01-03T22:40:28.261Z,5.99
2018-01-03T22:41:28.020Z,6.02
2018-01-03T22:42:28.562Z,5.98
2018-01-03T22:43:28.764Z,5.96
2018-01-03T22:44:28.067Z,5.98
2018-01-03T22:45:27.662Z,5.98
2018-01-03T22:46:28.062Z,5.99
2018-01-03T22:47:29.221Z,6
2018-01-03T22:48:27.942Z,5.94
2018-01-03T22:49:28.218Z,5.97
2018-01-03T22:50:29.675Z,5.96
2018-01-03T22:51:28.631Z,5.98
2018-01-03T22:52:28.049Z,5.94
2018-01-03T22:53:28.258Z,5.93
2018-01-03T22:54:28.778Z,5.94
2018-01-03T22:55:28.344Z,5.92
2018-01-03T22:56:27.840Z,5.88
2018-01-03T22:57:28.615Z,5.9
2018-01-03T22:58:27.973Z,5.92
2018-01-03T22:59:28.579Z,5.91
2018-01-03T23:00:27.849Z,5.87
2018-01-03T23:01:28.634Z,5.87
2018-01-03T23:02:28.778Z,5.9
2018-01-03T23:03:28.841Z,5.88
2018-01-03T23:04:28.142Z,5.87
2018-01-03T23:05:28.750Z,5.89
2018-01-03T23:06:28.753Z,5.92
2018-01-03T23:07:28.033Z,5.91
2018-01-03T23:08:28.241Z,5.92
2018-01-03T23:09:27.763Z,5.93
2018-01-03T23:10:28.691Z,5.94
2018-01-03T23:11:27.953Z,5.96
2018-01-03T23:12:28.273Z,5.93
2018-01-03T23:13:29.035Z,5.94
2018-01-03T23:14:28.296Z,5.96
2018-01-03T23:15:28.753Z,5.96
2018-01-03T23:16:28.171Z,5.96
2018-01-03T23:17:28.637Z,5.99
2018-01-03T23:18:27.693Z,5.98
2018-01-03T23:19:30.550Z,5.99
2018-01-03T23:20:28.996Z,6
2018-01-03T23:21:28.126Z,5.98
2018-01-03T23:22:28.568Z,5.97
2018-01-03T23:23:29.173Z,5.98
2018-01-03T23:24:29.047Z,5.99
2018-01-03T23:25:28.618Z,6.03
2018-01-03T23:26:28.860Z,6.01
2018-01-03T23:27:28.710Z,6
2018-01-03T23:28:28.131Z,5.98
2018-01-03T23:29:28.929Z,6.02
2018-01-03T23:30:28.498Z,6.01
2018-01-03T23:31:28.077Z,6.02
2018-01-03T23:32:28.394Z,6.01
2018-01-03T23:33:27.994Z,6
2018-01-03T23:34:29.088Z,6
2018-01-03T23:35:29.135Z,5.99
2018-01-03T23:36:28.606Z,6.02
2018-01-03T23:37:28.135Z,6.02
2018-01-03T23:38:28.089Z,6.02
2018-01-03T23:39:28.749Z,6
2018-01-03T23:40:28.505Z,6.02
2018-01-03T23:41:28.841Z,6.03
2018-01-03T23:42:27.955Z,6.02
2018-01-03T23:43:28.779Z,6
2018-01-03T23:44:28.234Z,6.02
2018-01-03T23:45:29.103Z,6.04
2018-01-03T23:46:28.489Z,6.04
2018-01-03T23:47:28.310Z,6.03
2018-01-03T23:48:28.241Z,6.02
2018-01-03T23:49:27.746Z,6
2018-01-03T23:50:28.507Z,6.02
2018-01-03T23:51:27.740Z,6.02
2018-01-03T23:52:28.785Z,6
2018-01-03T23:53:28.665Z,6
2018-01-03T23:54:28.445Z,6.02
2018-01-03T23:55:28.133Z,6.04
2018-01-03T23:56:28.875Z,6.02
2018-01-03T23:57:28.530Z,6.04
2018-01-03T23:58:27.981Z,6.05
2018-01-03T23:59:13.844Z,6.05
